sensor_id;sensor_type;location;lat;lon;timestamp;P1;durP1;ratioP1;P2;durP2;ratioP2
40601;SDS011;26310;50.278;19.032;2023-01-13T00:05:01;2.97;;;2.23;;
40601;SDS011;26310;50.278;19.032;2023-01-13T00:10:06;3.93;;;1.40;;
40601;SDS011;26310;50.278;19.032;2023-01-13T00:15:10;3.40;;;1.80;;
40601;SDS011;26310;50.278;19.032;2023-01-13T00:20:14;2.53;;;1.40;;
40601;SDS011;26310;50.278;19.032;2023-01-13T00:25:18;4.87;;;2.07;;
40601;SDS011;26310;50.278;19.032;2023-01-13T00:30:21;2.00;;;1.43;;
40601;SDS011;26310;50.278;19.032;2023-01-13T05:34:26;3.83;;;2.50;;
40601;SDS011;26310;50.278;19.032;2023-01-13T05:39:29;3.73;;;2.50;;
40601;SDS011;26310;50.278;19.032;2023-01-13T05:44:52;2.60;;;2.07;;
40601;SDS011;26310;50.278;19.032;2023-01-13T05:49:54;3.43;;;2.10;;
40601;SDS011;26310;50.278;19.032;2023-01-13T05:54:57;2.87;;;2.43;;
40601;SDS011;26310;50.278;19.032;2023-01-13T06:00:00;3.23;;;2.20;;
40601;SDS011;26310;50.278;19.032;2023-01-13T06:05:04;2.23;;;2.03;;
40601;SDS011;26310;50.278;19.032;2023-01-13T06:10:07;4.57;;;2.23;;
40601;SDS011;26310;50.278;19.032;2023-01-13T06:15:10;4.23;;;2.53;;
40601;SDS011;26310;50.278;19.032;2023-01-13T06:20:14;3.07;;;1.97;;
40601;SDS011;26310;50.278;19.032;2023-01-13T06:30:41;3.10;;;2.13;;
40601;SDS011;26310;50.278;19.032;2023-01-13T06:35:49;4.63;;;2.83;;
40601;SDS011;26310;50.278;19.032;2023-01-13T06:40:54;3.47;;;2.43;;
40601;SDS011;26310;50.278;19.032;2023-01-13T06:45:57;3.20;;;1.90;;
40601;SDS011;26310;50.278;19.032;2023-01-13T06:51:00;4.93;;;2.53;;
40601;SDS011;26310;50.278;19.032;2023-01-13T06:56:03;5.80;;;2.50;;
40601;SDS011;26310;50.278;19.032;2023-01-13T07:01:09;3.27;;;2.43;;
40601;SDS011;26310;50.278;19.032;2023-01-13T07:06:12;3.07;;;2.17;;
40601;SDS011;26310;50.278;19.032;2023-01-13T07:11:15;3.77;;;2.43;;
40601;SDS011;26310;50.278;19.032;2023-01-13T07:16:18;5.40;;;2.13;;
40601;SDS011;26310;50.278;19.032;2023-01-13T07:21:21;5.80;;;2.80;;
40601;SDS011;26310;50.278;19.032;2023-01-13T07:26:24;4.57;;;2.43;;
40601;SDS011;26310;50.278;19.032;2023-01-13T07:31:26;4.80;;;2.33;;
40601;SDS011;26310;50.278;19.032;2023-01-13T07:36:29;6.07;;;3.20;;
40601;SDS011;26310;50.278;19.032;2023-01-13T07:41:32;4.10;;;2.57;;
40601;SDS011;26310;50.278;19.032;2023-01-13T07:46:54;6.63;;;2.70;;
40601;SDS011;26310;50.278;19.032;2023-01-13T07:51:56;6.30;;;3.70;;
40601;SDS011;26310;50.278;19.032;2023-01-13T07:56:59;3.77;;;3.07;;
40601;SDS011;26310;50.278;19.032;2023-01-13T08:02:02;5.80;;;3.30;;
40601;SDS011;26310;50.278;19.032;2023-01-13T08:07:05;5.93;;;3.37;;
40601;SDS011;26310;50.278;19.032;2023-01-13T08:12:08;7.43;;;3.60;;
40601;SDS011;26310;50.278;19.032;2023-01-13T08:17:30;6.40;;;3.83;;
40601;SDS011;26310;50.278;19.032;2023-01-13T08:22:32;5.77;;;3.53;;
40601;SDS011;26310;50.278;19.032;2023-01-13T08:27:35;5.50;;;3.07;;
40601;SDS011;26310;50.278;19.032;2023-01-13T08:32:38;4.97;;;3.03;;
40601;SDS011;26310;50.278;19.032;2023-01-13T08:37:43;10.00;;;3.90;;
40601;SDS011;26310;50.278;19.032;2023-01-13T08:42:46;5.63;;;2.90;;
40601;SDS011;26310;50.278;19.032;2023-01-13T08:47:49;5.43;;;3.57;;
40601;SDS011;26310;50.278;19.032;2023-01-13T08:52:52;5.90;;;3.93;;
40601;SDS011;26310;50.278;19.032;2023-01-13T08:57:55;4.77;;;3.23;;
40601;SDS011;26310;50.278;19.032;2023-01-13T09:03:15;6.13;;;4.20;;
40601;SDS011;26310;50.278;19.032;2023-01-13T09:08:18;5.50;;;3.10;;
40601;SDS011;26310;50.278;19.032;2023-01-13T09:13:21;6.43;;;3.53;;
40601;SDS011;26310;50.278;19.032;2023-01-13T09:18:24;5.27;;;3.97;;
40601;SDS011;26310;50.278;19.032;2023-01-13T09:23:27;5.37;;;2.87;;
40601;SDS011;26310;50.278;19.032;2023-01-13T09:28:30;3.10;;;2.77;;
40601;SDS011;26310;50.278;19.032;2023-01-13T09:33:34;4.27;;;3.03;;
40601;SDS011;26310;50.278;19.032;2023-01-13T09:38:55;4.97;;;3.27;;
40601;SDS011;26310;50.278;19.032;2023-01-13T09:43:58;7.43;;;3.70;;
40601;SDS011;26310;50.278;19.032;2023-01-13T09:49:02;5.87;;;3.03;;
40601;SDS011;26310;50.278;19.032;2023-01-13T09:54:09;6.27;;;2.97;;
40601;SDS011;26310;50.278;19.032;2023-01-13T09:59:17;4.50;;;2.87;;
40601;SDS011;26310;50.278;19.032;2023-01-13T10:04:20;3.50;;;3.10;;
40601;SDS011;26310;50.278;19.032;2023-01-13T10:14:42;4.33;;;2.80;;
40601;SDS011;26310;50.278;19.032;2023-01-13T10:30:53;6.23;;;3.23;;
40601;SDS011;26310;50.278;19.032;2023-01-13T10:35:57;5.40;;;3.47;;
40601;SDS011;26310;50.278;19.032;2023-01-13T10:46:20;6.70;;;2.63;;
40601;SDS011;26310;50.278;19.032;2023-01-13T10:51:25;5.97;;;2.60;;
40601;SDS011;26310;50.278;19.032;2023-01-13T10:56:41;4.00;;;2.20;;
40601;SDS011;26310;50.278;19.032;2023-01-13T11:06:59;6.30;;;3.20;;
40601;SDS011;26310;50.278;19.032;2023-01-13T11:12:03;6.60;;;3.07;;
40601;SDS011;26310;50.278;19.032;2023-01-13T11:22:35;4.63;;;3.20;;
40601;SDS011;26310;50.278;19.032;2023-01-13T11:38:19;6.07;;;3.30;;
40601;SDS011;26310;50.278;19.032;2023-01-13T11:43:41;6.00;;;2.70;;
40601;SDS011;26310;50.278;19.032;2023-01-13T11:48:52;4.90;;;3.27;;
40601;SDS011;26310;50.278;19.032;2023-01-13T12:04:44;5.03;;;3.10;;
40601;SDS011;26310;50.278;19.032;2023-01-13T12:25:46;5.10;;;3.17;;
40601;SDS011;26310;50.278;19.032;2023-01-13T12:30:58;4.30;;;3.10;;
40601;SDS011;26310;50.278;19.032;2023-01-13T12:41:26;7.67;;;3.03;;
40601;SDS011;26310;50.278;19.032;2023-01-13T12:47:04;5.97;;;3.17;;
40601;SDS011;26310;50.278;19.032;2023-01-13T12:52:42;6.07;;;2.77;;
40601;SDS011;26310;50.278;19.032;2023-01-13T13:13:42;4.30;;;2.53;;
40601;SDS011;26310;50.278;19.032;2023-01-13T13:18:48;3.93;;;2.83;;
40601;SDS011;26310;50.278;19.032;2023-01-13T13:40:17;5.57;;;3.63;;
40601;SDS011;26310;50.278;19.032;2023-01-13T13:45:48;11.37;;;3.50;;
40601;SDS011;26310;50.278;19.032;2023-01-13T13:51:21;6.53;;;3.60;;
40601;SDS011;26310;50.278;19.032;2023-01-13T13:56:29;4.97;;;2.80;;
40601;SDS011;26310;50.278;19.032;2023-01-13T14:01:37;3.80;;;3.17;;
40601;SDS011;26310;50.278;19.032;2023-01-13T14:06:49;6.47;;;2.97;;
40601;SDS011;26310;50.278;19.032;2023-01-13T14:12:00;5.53;;;3.20;;
40601;SDS011;26310;50.278;19.032;2023-01-13T14:17:05;4.47;;;2.90;;
40601;SDS011;26310;50.278;19.032;2023-01-13T14:22:15;4.53;;;3.17;;
40601;SDS011;26310;50.278;19.032;2023-01-13T14:27:18;4.30;;;2.90;;
40601;SDS011;26310;50.278;19.032;2023-01-13T14:32:23;4.03;;;2.97;;
40601;SDS011;26310;50.278;19.032;2023-01-13T14:37:34;5.67;;;2.77;;
40601;SDS011;26310;50.278;19.032;2023-01-13T14:42:39;4.20;;;3.10;;
40601;SDS011;26310;50.278;19.032;2023-01-13T14:47:48;6.30;;;3.17;;
40601;SDS011;26310;50.278;19.032;2023-01-13T14:52:54;6.70;;;3.43;;
40601;SDS011;26310;50.278;19.032;2023-01-13T15:03:22;3.80;;;3.17;;
40601;SDS011;26310;50.278;19.032;2023-01-13T15:08:26;6.07;;;4.27;;
40601;SDS011;26310;50.278;19.032;2023-01-13T15:18:59;6.20;;;3.90;;
40601;SDS011;26310;50.278;19.032;2023-01-13T15:24:02;7.00;;;4.17;;
40601;SDS011;26310;50.278;19.032;2023-01-13T15:29:08;8.87;;;4.90;;
40601;SDS011;26310;50.278;19.032;2023-01-13T15:34:14;7.23;;;3.80;;
40601;SDS011;26310;50.278;19.032;2023-01-13T15:39:17;7.33;;;4.33;;
40601;SDS011;26310;50.278;19.032;2023-01-13T15:44:20;12.77;;;5.23;;
40601;SDS011;26310;50.278;19.032;2023-01-13T15:49:42;6.30;;;3.97;;
40601;SDS011;26310;50.278;19.032;2023-01-13T15:54:46;9.23;;;3.40;;
40601;SDS011;26310;50.278;19.032;2023-01-13T15:59:50;7.67;;;3.53;;
40601;SDS011;26310;50.278;19.032;2023-01-13T16:04:54;6.53;;;3.17;;
40601;SDS011;26310;50.278;19.032;2023-01-13T16:09:57;7.97;;;3.57;;
40601;SDS011;26310;50.278;19.032;2023-01-13T16:15:02;7.37;;;3.30;;
40601;SDS011;26310;50.278;19.032;2023-01-13T16:20:05;7.30;;;2.23;;
40601;SDS011;26310;50.278;19.032;2023-01-13T16:25:18;4.00;;;2.30;;
40601;SDS011;26310;50.278;19.032;2023-01-13T16:30:28;5.07;;;2.60;;
40601;SDS011;26310;50.278;19.032;2023-01-13T16:35:33;4.50;;;2.63;;
40601;SDS011;26310;50.278;19.032;2023-01-13T16:40:45;5.00;;;2.60;;
40601;SDS011;26310;50.278;19.032;2023-01-13T16:45:49;4.57;;;2.43;;
40601;SDS011;26310;50.278;19.032;2023-01-13T16:50:52;3.10;;;2.77;;
40601;SDS011;26310;50.278;19.032;2023-01-13T16:55:55;4.67;;;2.93;;
40601;SDS011;26310;50.278;19.032;2023-01-13T17:00:58;5.97;;;2.80;;
40601;SDS011;26310;50.278;19.032;2023-01-13T17:06:01;6.10;;;3.60;;
40601;SDS011;26310;50.278;19.032;2023-01-13T17:11:04;5.07;;;3.07;;
40601;SDS011;26310;50.278;19.032;2023-01-13T17:16:12;8.50;;;2.87;;
40601;SDS011;26310;50.278;19.032;2023-01-13T17:21:21;6.53;;;3.23;;
40601;SDS011;26310;50.278;19.032;2023-01-13T17:31:34;4.23;;;2.47;;
40601;SDS011;26310;50.278;19.032;2023-01-13T17:36:37;5.63;;;2.90;;
40601;SDS011;26310;50.278;19.032;2023-01-13T17:41:40;3.83;;;2.80;;
40601;SDS011;26310;50.278;19.032;2023-01-13T17:46:43;3.27;;;2.57;;
40601;SDS011;26310;50.278;19.032;2023-01-13T17:51:47;5.17;;;2.63;;
40601;SDS011;26310;50.278;19.032;2023-01-13T17:56:51;6.20;;;3.20;;
40601;SDS011;26310;50.278;19.032;2023-01-13T18:01:55;5.53;;;3.03;;
40601;SDS011;26310;50.278;19.032;2023-01-13T18:06:59;7.53;;;3.20;;
40601;SDS011;26310;50.278;19.032;2023-01-13T18:12:01;8.60;;;3.33;;
40601;SDS011;26310;50.278;19.032;2023-01-13T18:17:05;9.83;;;3.87;;
40601;SDS011;26310;50.278;19.032;2023-01-13T18:22:10;9.07;;;4.27;;
40601;SDS011;26310;50.278;19.032;2023-01-13T18:27:33;4.33;;;3.27;;
40601;SDS011;26310;50.278;19.032;2023-01-13T18:32:38;7.53;;;4.13;;
40601;SDS011;26310;50.278;19.032;2023-01-13T18:37:41;7.80;;;3.90;;
40601;SDS011;26310;50.278;19.032;2023-01-13T18:42:45;5.07;;;3.80;;
40601;SDS011;26310;50.278;19.032;2023-01-13T18:47:56;5.67;;;3.20;;
40601;SDS011;26310;50.278;19.032;2023-01-13T18:53:01;3.83;;;2.90;;
40601;SDS011;26310;50.278;19.032;2023-01-13T18:58:04;5.90;;;3.60;;
40601;SDS011;26310;50.278;19.032;2023-01-13T19:03:07;5.30;;;4.00;;
40601;SDS011;26310;50.278;19.032;2023-01-13T19:08:10;8.97;;;4.30;;
40601;SDS011;26310;50.278;19.032;2023-01-13T19:13:12;12.80;;;5.67;;
40601;SDS011;26310;50.278;19.032;2023-01-13T19:18:17;7.27;;;4.67;;
40601;SDS011;26310;50.278;19.032;2023-01-13T19:23:22;10.20;;;5.43;;
40601;SDS011;26310;50.278;19.032;2023-01-13T19:28:25;8.83;;;5.50;;
40601;SDS011;26310;50.278;19.032;2023-01-13T19:33:32;10.97;;;4.97;;
40601;SDS011;26310;50.278;19.032;2023-01-13T19:38:36;7.27;;;3.60;;
40601;SDS011;26310;50.278;19.032;2023-01-13T19:43:39;5.17;;;3.97;;
40601;SDS011;26310;50.278;19.032;2023-01-13T19:49:01;6.53;;;4.10;;
40601;SDS011;26310;50.278;19.032;2023-01-13T19:54:04;6.50;;;3.70;;
40601;SDS011;26310;50.278;19.032;2023-01-13T19:59:07;6.23;;;3.93;;
40601;SDS011;26310;50.278;19.032;2023-01-13T20:04:11;7.13;;;4.20;;
40601;SDS011;26310;50.278;19.032;2023-01-13T20:09:15;6.50;;;3.37;;
40601;SDS011;26310;50.278;19.032;2023-01-13T20:14:18;8.57;;;5.33;;
40601;SDS011;26310;50.278;19.032;2023-01-13T20:19:21;7.20;;;4.83;;
40601;SDS011;26310;50.278;19.032;2023-01-13T20:24:24;7.67;;;4.60;;
40601;SDS011;26310;50.278;19.032;2023-01-13T20:29:27;8.67;;;5.63;;
40601;SDS011;26310;50.278;19.032;2023-01-13T20:34:30;10.40;;;5.80;;
40601;SDS011;26310;50.278;19.032;2023-01-13T20:39:33;12.20;;;5.17;;
40601;SDS011;26310;50.278;19.032;2023-01-13T20:44:36;7.90;;;4.97;;
40601;SDS011;26310;50.278;19.032;2023-01-13T20:49:39;9.50;;;5.23;;
40601;SDS011;26310;50.278;19.032;2023-01-13T20:54:42;9.00;;;5.17;;
40601;SDS011;26310;50.278;19.032;2023-01-13T20:59:45;9.77;;;4.77;;
40601;SDS011;26310;50.278;19.032;2023-01-13T21:04:48;6.73;;;4.60;;
40601;SDS011;26310;50.278;19.032;2023-01-13T21:09:52;8.90;;;4.83;;
40601;SDS011;26310;50.278;19.032;2023-01-13T21:14:55;7.00;;;4.93;;
40601;SDS011;26310;50.278;19.032;2023-01-13T21:20:16;8.07;;;4.53;;
40601;SDS011;26310;50.278;19.032;2023-01-13T21:25:19;10.60;;;5.10;;
40601;SDS011;26310;50.278;19.032;2023-01-13T21:30:22;7.57;;;4.67;;
40601;SDS011;26310;50.278;19.032;2023-01-13T21:35:24;9.07;;;5.50;;
40601;SDS011;26310;50.278;19.032;2023-01-13T21:40:27;10.23;;;5.30;;
40601;SDS011;26310;50.278;19.032;2023-01-13T21:45:30;10.03;;;5.13;;
40601;SDS011;26310;50.278;19.032;2023-01-13T21:50:52;5.40;;;4.17;;
40601;SDS011;26310;50.278;19.032;2023-01-13T21:55:55;9.20;;;4.50;;
40601;SDS011;26310;50.278;19.032;2023-01-13T22:00:59;9.53;;;4.77;;
40601;SDS011;26310;50.278;19.032;2023-01-13T22:06:03;9.33;;;4.60;;
40601;SDS011;26310;50.278;19.032;2023-01-13T22:11:06;6.73;;;4.63;;
40601;SDS011;26310;50.278;19.032;2023-01-13T22:16:09;10.57;;;5.17;;
40601;SDS011;26310;50.278;19.032;2023-01-13T22:21:12;7.87;;;4.30;;
40601;SDS011;26310;50.278;19.032;2023-01-13T22:26:15;8.27;;;4.40;;
40601;SDS011;26310;50.278;19.032;2023-01-13T22:31:19;7.87;;;4.40;;
40601;SDS011;26310;50.278;19.032;2023-01-13T22:36:24;8.13;;;4.27;;
40601;SDS011;26310;50.278;19.032;2023-01-13T22:41:27;8.17;;;5.30;;
40601;SDS011;26310;50.278;19.032;2023-01-13T22:46:30;6.67;;;4.10;;
40601;SDS011;26310;50.278;19.032;2023-01-13T22:51:33;7.40;;;4.83;;
40601;SDS011;26310;50.278;19.032;2023-01-13T22:56:36;8.40;;;4.60;;
40601;SDS011;26310;50.278;19.032;2023-01-13T23:01:39;8.53;;;6.10;;
40601;SDS011;26310;50.278;19.032;2023-01-13T23:06:43;8.60;;;4.53;;
40601;SDS011;26310;50.278;19.032;2023-01-13T23:11:45;10.13;;;5.17;;
40601;SDS011;26310;50.278;19.032;2023-01-13T23:16:48;7.03;;;4.77;;
40601;SDS011;26310;50.278;19.032;2023-01-13T23:21:51;7.70;;;4.40;;
40601;SDS011;26310;50.278;19.032;2023-01-13T23:26:54;8.73;;;5.10;;
40601;SDS011;26310;50.278;19.032;2023-01-13T23:31:57;8.63;;;4.90;;
40601;SDS011;26310;50.278;19.032;2023-01-13T23:37:00;7.57;;;4.10;;
40601;SDS011;26310;50.278;19.032;2023-01-13T23:42:03;9.33;;;4.23;;
40601;SDS011;26310;50.278;19.032;2023-01-13T23:47:06;5.70;;;4.13;;
40601;SDS011;26310;50.278;19.032;2023-01-13T23:52:09;6.87;;;4.33;;
40601;SDS011;26310;50.278;19.032;2023-01-13T23:57:12;6.50;;;4.70;;
